PWSweather.com
Personal Weather Stations
Station Observations
KUTEAGLE26
Meadow Ranch, Eagle Mountain, UT 84005

Meadow RanchEagle Mountain, UT 84005

Lat: 40.39, Lon: -111.985

Elevation: 5140

Station Type: Davis Vantage Pro 2

Latest ConditionsUpdated 2:55:00 AM MST Tuesday, Dec 10, 2019
Currently Today's Max Today's Min Today's Average
Temperature 29.5°F-1.4°C 32.7°F0.4°C 28.1°F-2.2°C 29.9°F-1.2°C
Dew Point 24.4°F-4.2°C 25.3°F-3.7°C 22.7°F-5.2°C 23.8°F-4.6°C
Winds 2.0 mph W3.2 kmh W 7.0 mph -11.3 kmh - - 2.1 mph 3.4 kmh
Wind Gusts 3.0 mph4.8 kmh 9.0 mph14.5 kmh - -
Humidity 81% 81% 73% 78%
Pressure 30.36 in1028.1 mb 30.37 in1028.4 mb 30.33 in1027.1 mb -
Hour Temp Dew Point Humidity Winds Wind Gusts Pressure Precip Precip Rate Daily Precip Total
02:55 AM 29.5°F-1.4°C 24.4°F-4.2°C 81% 2.0 mph W3.2 kmh W 3.0 mph4.8 kmh 30.36 in1028.1 mb 0.00 in0.0 mm 0.00 in0.0 mm 0.00 in0.0 mm
02:54 AM 29.5°F-1.4°C 24.4°F-4.2°C 81% 2.0 mph W3.2 kmh W 3.0 mph4.8 kmh 30.36 in1028.1 mb 0.00 in0.0 mm 0.00 in0.0 mm 0.00 in0.0 mm
02:53 AM 29.6°F-1.3°C 24.5°F-4.2°C 81% 2.0 mph W3.2 kmh W 3.0 mph4.8 kmh 30.36 in1028.1 mb 0.00 in0.0 mm 0.00 in0.0 mm 0.00 in0.0 mm
02:52 AM 29.5°F-1.4°C 24.4°F-4.2°C 81% 2.0 mph W3.2 kmh W 3.0 mph4.8 kmh 30.36 in1028.1 mb 0.00 in0.0 mm 0.00 in0.0 mm 0.00 in0.0 mm
02:51 AM 29.5°F-1.4°C 24.4°F-4.2°C 81% 3.0 mph W4.8 kmh W 4.0 mph6.4 kmh 30.36 in1028.1 mb 0.00 in0.0 mm 0.00 in0.0 mm 0.00 in0.0 mm
02:50 AM 29.6°F-1.3°C 24.5°F-4.2°C 81% 3.0 mph W4.8 kmh W 6.0 mph9.7 kmh 30.36 in1028.1 mb 0.00 in0.0 mm 0.00 in0.0 mm 0.00 in0.0 mm
02:49 AM 29.5°F-1.4°C 24.4°F-4.2°C 81% 4.0 mph W6.4 kmh W 6.0 mph9.7 kmh 30.36 in1028.1 mb 0.00 in0.0 mm 0.00 in0.0 mm 0.00 in0.0 mm
02:48 AM 29.6°F-1.3°C 24.2°F-4.3°C 80% 4.0 mph WSW6.4 kmh WSW 5.0 mph8.0 kmh 30.36 in1028.1 mb 0.00 in0.0 mm 0.00 in0.0 mm 0.00 in0.0 mm
02:47 AM 29.5°F-1.4°C 24.1°F-4.4°C 80% 3.0 mph W4.8 kmh W 4.0 mph6.4 kmh 30.36 in1028.1 mb 0.00 in0.0 mm 0.00 in0.0 mm 0.00 in0.0 mm
02:46 AM 29.6°F-1.3°C 24.2°F-4.3°C 80% 3.0 mph W4.8 kmh W 4.0 mph6.4 kmh 30.36 in1028.1 mb 0.00 in0.0 mm 0.00 in0.0 mm 0.00 in0.0 mm
02:45 AM 29.5°F-1.4°C 24.1°F-4.4°C 80% 3.0 mph W4.8 kmh W 4.0 mph6.4 kmh 30.36 in1028.1 mb 0.00 in0.0 mm 0.00 in0.0 mm 0.00 in0.0 mm
02:44 AM 29.5°F-1.4°C 24.1°F-4.4°C 80% 3.0 mph WSW4.8 kmh WSW 4.0 mph6.4 kmh 30.36 in1028.1 mb 0.00 in0.0 mm 0.00 in0.0 mm 0.00 in0.0 mm
02:43 AM 29.5°F-1.4°C 24.1°F-4.4°C 80% 3.0 mph W4.8 kmh W 4.0 mph6.4 kmh 30.36 in1028.1 mb 0.00 in0.0 mm 0.00 in0.0 mm 0.00 in0.0 mm
02:42 AM 29.5°F-1.4°C 24.1°F-4.4°C 80% 3.0 mph W4.8 kmh W 4.0 mph6.4 kmh 30.36 in1028.1 mb 0.00 in0.0 mm 0.00 in0.0 mm 0.00 in0.0 mm
02:41 AM 29.5°F-1.4°C 24.1°F-4.4°C 80% 2.0 mph W3.2 kmh W 3.0 mph4.8 kmh 30.36 in1028.1 mb 0.00 in0.0 mm 0.00 in0.0 mm 0.00 in0.0 mm
02:40 AM 29.5°F-1.4°C 24.1°F-4.4°C 80% 3.0 mph W4.8 kmh W 3.0 mph4.8 kmh 30.36 in1028.1 mb 0.00 in0.0 mm 0.00 in0.0 mm 0.00 in0.0 mm
02:39 AM 29.6°F-1.3°C 24.2°F-4.3°C 80% 2.0 mph W3.2 kmh W 4.0 mph6.4 kmh 30.37 in1028.4 mb 0.00 in0.0 mm 0.00 in0.0 mm 0.00 in0.0 mm
02:38 AM 29.5°F-1.4°C 24.1°F-4.4°C 80% 3.0 mph W4.8 kmh W 6.0 mph9.7 kmh 30.36 in1028.1 mb 0.00 in0.0 mm 0.00 in0.0 mm 0.00 in0.0 mm
02:37 AM 29.5°F-1.4°C 24.1°F-4.4°C 80% 3.0 mph W4.8 kmh W 3.0 mph4.8 kmh 30.36 in1028.1 mb 0.00 in0.0 mm 0.00 in0.0 mm 0.00 in0.0 mm
02:36 AM 29.4°F-1.4°C 24.0°F-4.4°C 80% 4.0 mph W6.4 kmh W 6.0 mph9.7 kmh 30.36 in1028.1 mb 0.00 in0.0 mm 0.00 in0.0 mm 0.00 in0.0 mm
02:35 AM 29.3°F-1.5°C 23.9°F-4.5°C 80% 3.0 mph W4.8 kmh W 6.0 mph9.7 kmh 30.36 in1028.1 mb 0.00 in0.0 mm 0.00 in0.0 mm 0.00 in0.0 mm
02:34 AM 29.3°F-1.5°C 23.9°F-4.5°C 80% 3.0 mph W4.8 kmh W 4.0 mph6.4 kmh 30.36 in1028.1 mb 0.00 in0.0 mm 0.00 in0.0 mm 0.00 in0.0 mm
02:33 AM 29.3°F-1.5°C 23.9°F-4.5°C 80% 2.0 mph W3.2 kmh W 3.0 mph4.8 kmh 30.36 in1028.1 mb 0.00 in0.0 mm 0.00 in0.0 mm 0.00 in0.0 mm
02:32 AM 29.2°F-1.6°C 23.8°F-4.6°C 80% 3.0 mph W4.8 kmh W 4.0 mph6.4 kmh 30.36 in1028.1 mb 0.00 in0.0 mm 0.00 in0.0 mm 0.00 in0.0 mm
02:31 AM 29.1°F-1.6°C 23.7°F-4.6°C 80% 3.0 mph W4.8 kmh W 4.0 mph6.4 kmh 30.36 in1028.1 mb 0.00 in0.0 mm 0.00 in0.0 mm 0.00 in0.0 mm
02:30 AM 29.0°F-1.7°C 23.6°F-4.7°C 80% 3.0 mph W4.8 kmh W 6.0 mph9.7 kmh 30.36 in1028.1 mb 0.00 in0.0 mm 0.00 in0.0 mm 0.00 in0.0 mm
02:29 AM 28.8°F-1.8°C 23.4°F-4.8°C 80% 3.0 mph W4.8 kmh W 6.0 mph9.7 kmh 30.36 in1028.1 mb 0.00 in0.0 mm 0.00 in0.0 mm 0.00 in0.0 mm
02:28 AM 28.8°F-1.8°C 23.1°F-4.9°C 79% 2.0 mph W3.2 kmh W 3.0 mph4.8 kmh 30.36 in1028.1 mb 0.00 in0.0 mm 0.00 in0.0 mm 0.00 in0.0 mm
02:27 AM 28.7°F-1.8°C 23.3°F-4.8°C 80% 3.0 mph W4.8 kmh W 4.0 mph6.4 kmh 30.36 in1028.1 mb 0.00 in0.0 mm 0.00 in0.0 mm 0.00 in0.0 mm
02:26 AM 28.7°F-1.8°C 23.3°F-4.8°C 80% 3.0 mph W4.8 kmh W 6.0 mph9.7 kmh 30.36 in1028.1 mb 0.00 in0.0 mm 0.00 in0.0 mm 0.00 in0.0 mm
02:25 AM 28.5°F-1.9°C 23.1°F-4.9°C 80% 2.0 mph NNW3.2 kmh NNW 2.0 mph3.2 kmh 30.36 in1028.1 mb 0.00 in0.0 mm 0.00 in0.0 mm 0.00 in0.0 mm
02:24 AM 28.5°F-1.9°C 23.1°F-4.9°C 80% 2.0 mph NNW3.2 kmh NNW 2.0 mph3.2 kmh 30.36 in1028.1 mb 0.00 in0.0 mm 0.00 in0.0 mm 0.00 in0.0 mm
02:23 AM 28.5°F-1.9°C 23.1°F-4.9°C 80% 1.0 mph NNW1.6 kmh NNW 3.0 mph4.8 kmh 30.36 in1028.1 mb 0.00 in0.0 mm 0.00 in0.0 mm 0.00 in0.0 mm
02:22 AM 28.5°F-1.9°C 23.1°F-4.9°C 80% 1.0 mph NNW1.6 kmh NNW 2.0 mph3.2 kmh 30.36 in1028.1 mb 0.00 in0.0 mm 0.00 in0.0 mm 0.00 in0.0 mm
02:21 AM 28.5°F-1.9°C 23.1°F-4.9°C 80% Calm Calm 1.0 mph1.6 kmh 30.36 in1028.1 mb 0.00 in0.0 mm 0.00 in0.0 mm 0.00 in0.0 mm
02:20 AM 28.3°F-2.1°C 23.2°F-4.9°C 81% 1.0 mph NNW1.6 kmh NNW 2.0 mph3.2 kmh 30.36 in1028.1 mb 0.00 in0.0 mm 0.00 in0.0 mm 0.00 in0.0 mm
02:19 AM 28.3°F-2.1°C 23.2°F-4.9°C 81% 1.0 mph NNW1.6 kmh NNW 2.0 mph3.2 kmh 30.36 in1028.1 mb 0.00 in0.0 mm 0.00 in0.0 mm 0.00 in0.0 mm
02:18 AM 28.2°F-2.1°C 23.1°F-4.9°C 81% 1.0 mph NNW1.6 kmh NNW 1.0 mph1.6 kmh 30.36 in1028.1 mb 0.00 in0.0 mm 0.00 in0.0 mm 0.00 in0.0 mm
02:17 AM 28.1°F-2.2°C 23.0°F-5.0°C 81% 1.0 mph NNW1.6 kmh NNW 2.0 mph3.2 kmh 30.36 in1028.1 mb 0.00 in0.0 mm 0.00 in0.0 mm 0.00 in0.0 mm
02:16 AM 28.1°F-2.2°C 23.0°F-5.0°C 81% 2.0 mph NNW3.2 kmh NNW 3.0 mph4.8 kmh 30.36 in1028.1 mb 0.00 in0.0 mm 0.00 in0.0 mm 0.00 in0.0 mm
02:15 AM 28.1°F-2.2°C 23.0°F-5.0°C 81% 2.0 mph NNW3.2 kmh NNW 3.0 mph4.8 kmh 30.36 in1028.1 mb 0.00 in0.0 mm 0.00 in0.0 mm 0.00 in0.0 mm
02:14 AM 28.2°F-2.1°C 23.1°F-4.9°C 81% 2.0 mph NNW3.2 kmh NNW 3.0 mph4.8 kmh 30.36 in1028.1 mb 0.00 in0.0 mm 0.00 in0.0 mm 0.00 in0.0 mm
02:13 AM 28.1°F-2.2°C 23.0°F-5.0°C 81% 2.0 mph NNW3.2 kmh NNW 3.0 mph4.8 kmh 30.36 in1028.1 mb 0.00 in0.0 mm 0.00 in0.0 mm 0.00 in0.0 mm
02:12 AM 28.1°F-2.2°C 23.0°F-5.0°C 81% 3.0 mph NNW4.8 kmh NNW 3.0 mph4.8 kmh 30.35 in1027.8 mb 0.00 in0.0 mm 0.00 in0.0 mm 0.00 in0.0 mm
02:11 AM 28.1°F-2.2°C 23.0°F-5.0°C 81% 3.0 mph NNW4.8 kmh NNW 3.0 mph4.8 kmh 30.35 in1027.8 mb 0.00 in0.0 mm 0.00 in0.0 mm 0.00 in0.0 mm
02:10 AM 28.2°F-2.1°C 22.8°F-5.1°C 80% 2.0 mph NNW3.2 kmh NNW 3.0 mph4.8 kmh 30.35 in1027.8 mb 0.00 in0.0 mm 0.00 in0.0 mm 0.00 in0.0 mm
02:09 AM 28.2°F-2.1°C 22.8°F-5.1°C 80% 2.0 mph NNW3.2 kmh NNW 3.0 mph4.8 kmh 30.35 in1027.8 mb 0.00 in0.0 mm 0.00 in0.0 mm 0.00 in0.0 mm
02:08 AM 28.3°F-2.1°C 23.2°F-4.9°C 81% 3.0 mph NNW4.8 kmh NNW 4.0 mph6.4 kmh 30.35 in1027.8 mb 0.00 in0.0 mm 0.00 in0.0 mm 0.00 in0.0 mm
02:07 AM 28.3°F-2.1°C 23.2°F-4.9°C 81% 2.0 mph NNW3.2 kmh NNW 4.0 mph6.4 kmh 30.35 in1027.8 mb 0.00 in0.0 mm 0.00 in0.0 mm 0.00 in0.0 mm
02:06 AM 28.3°F-2.1°C 23.2°F-4.9°C 81% Calm Calm -- 30.35 in1027.8 mb 0.00 in0.0 mm 0.00 in0.0 mm 0.00 in0.0 mm
02:05 AM 28.2°F-2.1°C 23.1°F-4.9°C 81% Calm Calm -- 30.35 in1027.8 mb 0.00 in0.0 mm 0.00 in0.0 mm 0.00 in0.0 mm
02:04 AM 28.2°F-2.1°C 23.1°F-4.9°C 81% Calm Calm 1.0 mph1.6 kmh 30.35 in1027.8 mb 0.00 in0.0 mm 0.00 in0.0 mm 0.00 in0.0 mm
02:03 AM 28.2°F-2.1°C 23.1°F-4.9°C 81% 1.0 mph NNW1.6 kmh NNW 2.0 mph3.2 kmh 30.35 in1027.8 mb 0.00 in0.0 mm 0.00 in0.0 mm 0.00 in0.0 mm
02:02 AM 28.1°F-2.2°C 23.0°F-5.0°C 81% 1.0 mph NNW1.6 kmh NNW 2.0 mph3.2 kmh 30.35 in1027.8 mb 0.00 in0.0 mm 0.00 in0.0 mm 0.00 in0.0 mm
02:01 AM 28.1°F-2.2°C 22.7°F-5.2°C 80% Calm Calm 1.0 mph1.6 kmh 30.35 in1027.8 mb 0.00 in0.0 mm 0.00 in0.0 mm 0.00 in0.0 mm
02:00 AM 28.2°F-2.1°C 22.8°F-5.1°C 80% 1.0 mph NNW1.6 kmh NNW 2.0 mph3.2 kmh 30.35 in1027.8 mb 0.00 in0.0 mm 0.00 in0.0 mm 0.00 in0.0 mm
01:59 AM 28.2°F-2.1°C 22.8°F-5.1°C 80% 2.0 mph NNW3.2 kmh NNW 2.0 mph3.2 kmh 30.35 in1027.8 mb 0.00 in0.0 mm 0.00 in0.0 mm 0.00 in0.0 mm
01:58 AM 28.2°F-2.1°C 22.8°F-5.1°C 80% 1.0 mph NNW1.6 kmh NNW 2.0 mph3.2 kmh 30.35 in1027.8 mb 0.00 in0.0 mm 0.00 in0.0 mm 0.00 in0.0 mm
01:57 AM 28.2°F-2.1°C 23.1°F-4.9°C 81% 2.0 mph NNW3.2 kmh NNW 2.0 mph3.2 kmh 30.35 in1027.8 mb 0.00 in0.0 mm 0.00 in0.0 mm 0.00 in0.0 mm
01:56 AM 28.2°F-2.1°C 23.1°F-4.9°C 81% 3.0 mph NNW4.8 kmh NNW 4.0 mph6.4 kmh 30.35 in1027.8 mb 0.00 in0.0 mm 0.00 in0.0 mm 0.00 in0.0 mm
01:55 AM 28.2°F-2.1°C 23.1°F-4.9°C 81% 3.0 mph NNW4.8 kmh NNW 4.0 mph6.4 kmh 30.35 in1027.8 mb 0.00 in0.0 mm 0.00 in0.0 mm 0.00 in0.0 mm
01:54 AM 28.3°F-2.1°C 22.9°F-5.1°C 80% 3.0 mph NNW4.8 kmh NNW 4.0 mph6.4 kmh 30.34 in1027.4 mb 0.00 in0.0 mm 0.00 in0.0 mm 0.00 in0.0 mm
01:53 AM 28.3°F-2.1°C 22.9°F-5.1°C 80% 3.0 mph NNW4.8 kmh NNW 3.0 mph4.8 kmh 30.35 in1027.8 mb 0.00 in0.0 mm 0.00 in0.0 mm 0.00 in0.0 mm
01:52 AM 28.4°F-2.0°C 23.0°F-5.0°C 80% 3.0 mph NNW4.8 kmh NNW 3.0 mph4.8 kmh 30.34 in1027.4 mb 0.00 in0.0 mm 0.00 in0.0 mm 0.00 in0.0 mm
01:51 AM 28.4°F-2.0°C 23.0°F-5.0°C 80% 3.0 mph NNW4.8 kmh NNW 3.0 mph4.8 kmh 30.34 in1027.4 mb 0.00 in0.0 mm 0.00 in0.0 mm 0.00 in0.0 mm
01:50 AM 28.5°F-1.9°C 23.1°F-4.9°C 80% 4.0 mph NNW6.4 kmh NNW 4.0 mph6.4 kmh 30.34 in1027.4 mb 0.00 in0.0 mm 0.00 in0.0 mm 0.00 in0.0 mm
01:49 AM 28.6°F-1.9°C 23.2°F-4.9°C 80% 3.0 mph NNW4.8 kmh NNW 4.0 mph6.4 kmh 30.34 in1027.4 mb 0.00 in0.0 mm 0.00 in0.0 mm 0.00 in0.0 mm
01:48 AM 28.6°F-1.9°C 23.2°F-4.9°C 80% 4.0 mph NNW6.4 kmh NNW 5.0 mph8.0 kmh 30.34 in1027.4 mb 0.00 in0.0 mm 0.00 in0.0 mm 0.00 in0.0 mm
01:47 AM 28.7°F-1.8°C 23.3°F-4.8°C 80% 3.0 mph NNW4.8 kmh NNW 4.0 mph6.4 kmh 30.34 in1027.4 mb 0.00 in0.0 mm 0.00 in0.0 mm 0.00 in0.0 mm
01:46 AM 28.7°F-1.8°C 23.3°F-4.8°C 80% 3.0 mph NNW4.8 kmh NNW 4.0 mph6.4 kmh 30.34 in1027.4 mb 0.00 in0.0 mm 0.00 in0.0 mm 0.00 in0.0 mm
01:45 AM 28.7°F-1.8°C 23.0°F-5.0°C 79% 3.0 mph NNW4.8 kmh NNW 4.0 mph6.4 kmh 30.34 in1027.4 mb 0.00 in0.0 mm 0.00 in0.0 mm 0.00 in0.0 mm
01:44 AM 28.8°F-1.8°C 23.4°F-4.8°C 80% 3.0 mph NNW4.8 kmh NNW 4.0 mph6.4 kmh 30.34 in1027.4 mb 0.00 in0.0 mm 0.00 in0.0 mm 0.00 in0.0 mm
01:43 AM 28.9°F-1.7°C 23.5°F-4.7°C 80% 2.0 mph NNW3.2 kmh NNW 3.0 mph4.8 kmh 30.34 in1027.4 mb 0.00 in0.0 mm 0.00 in0.0 mm 0.00 in0.0 mm
01:42 AM 28.9°F-1.7°C 23.5°F-4.7°C 80% 1.0 mph NNW1.6 kmh NNW 1.0 mph1.6 kmh 30.34 in1027.4 mb 0.00 in0.0 mm 0.00 in0.0 mm 0.00 in0.0 mm
01:41 AM 28.9°F-1.7°C 23.5°F-4.7°C 80% 2.0 mph NNW3.2 kmh NNW 2.0 mph3.2 kmh 30.34 in1027.4 mb 0.00 in0.0 mm 0.00 in0.0 mm 0.00 in0.0 mm
01:40 AM 28.9°F-1.7°C 23.5°F-4.7°C 80% 2.0 mph NNW3.2 kmh NNW 3.0 mph4.8 kmh 30.34 in1027.4 mb 0.00 in0.0 mm 0.00 in0.0 mm 0.00 in0.0 mm
01:39 AM 28.9°F-1.7°C 23.5°F-4.7°C 80% 1.0 mph NNW1.6 kmh NNW 2.0 mph3.2 kmh 30.34 in1027.4 mb 0.00 in0.0 mm 0.00 in0.0 mm 0.00 in0.0 mm
01:38 AM 28.8°F-1.8°C 23.4°F-4.8°C 80% 2.0 mph NNW3.2 kmh NNW 2.0 mph3.2 kmh 30.34 in1027.4 mb 0.00 in0.0 mm 0.00 in0.0 mm 0.00 in0.0 mm
01:37 AM 28.8°F-1.8°C 23.4°F-4.8°C 80% 2.0 mph NNW3.2 kmh NNW 3.0 mph4.8 kmh 30.34 in1027.4 mb 0.00 in0.0 mm 0.00 in0.0 mm 0.00 in0.0 mm
01:36 AM 28.8°F-1.8°C 23.4°F-4.8°C 80% 2.0 mph NNW3.2 kmh NNW 3.0 mph4.8 kmh 30.34 in1027.4 mb 0.00 in0.0 mm 0.00 in0.0 mm 0.00 in0.0 mm
01:35 AM 28.8°F-1.8°C 23.4°F-4.8°C 80% 1.0 mph NNW1.6 kmh NNW 2.0 mph3.2 kmh 30.34 in1027.4 mb 0.00 in0.0 mm 0.00 in0.0 mm 0.00 in0.0 mm
01:34 AM 28.9°F-1.7°C 23.5°F-4.7°C 80% 1.0 mph NNW1.6 kmh NNW 1.0 mph1.6 kmh 30.34 in1027.4 mb 0.00 in0.0 mm 0.00 in0.0 mm 0.00 in0.0 mm
01:33 AM 28.9°F-1.7°C 23.5°F-4.7°C 80% Calm Calm 1.0 mph1.6 kmh 30.34 in1027.4 mb 0.00 in0.0 mm 0.00 in0.0 mm 0.00 in0.0 mm
01:32 AM 28.9°F-1.7°C 23.5°F-4.7°C 80% Calm Calm -- 30.34 in1027.4 mb 0.00 in0.0 mm 0.00 in0.0 mm 0.00 in0.0 mm
01:31 AM 29.0°F-1.7°C 23.6°F-4.7°C 80% Calm Calm -- 30.34 in1027.4 mb 0.00 in0.0 mm 0.00 in0.0 mm 0.00 in0.0 mm
01:30 AM 28.9°F-1.7°C 23.5°F-4.7°C 80% Calm Calm -- 30.34 in1027.4 mb 0.00 in0.0 mm 0.00 in0.0 mm 0.00 in0.0 mm
01:29 AM 29.0°F-1.7°C 23.6°F-4.7°C 80% Calm Calm 1.0 mph1.6 kmh 30.34 in1027.4 mb 0.00 in0.0 mm 0.00 in0.0 mm 0.00 in0.0 mm
01:28 AM 29.0°F-1.7°C 23.6°F-4.7°C 80% Calm Calm -- 30.34 in1027.4 mb 0.00 in0.0 mm 0.00 in0.0 mm 0.00 in0.0 mm
01:27 AM 28.9°F-1.7°C 23.5°F-4.7°C 80% 1.0 mph NNW1.6 kmh NNW 1.0 mph1.6 kmh 30.34 in1027.4 mb 0.00 in0.0 mm 0.00 in0.0 mm 0.00 in0.0 mm
01:26 AM 28.8°F-1.8°C 23.4°F-4.8°C 80% 1.0 mph NNW1.6 kmh NNW 1.0 mph1.6 kmh 30.34 in1027.4 mb 0.00 in0.0 mm 0.00 in0.0 mm 0.00 in0.0 mm
01:25 AM 28.9°F-1.7°C 23.5°F-4.7°C 80% Calm Calm -- 30.34 in1027.4 mb 0.00 in0.0 mm 0.00 in0.0 mm 0.00 in0.0 mm
01:24 AM 28.8°F-1.8°C 23.4°F-4.8°C 80% Calm Calm -- 30.34 in1027.4 mb 0.00 in0.0 mm 0.00 in0.0 mm 0.00 in0.0 mm
01:23 AM 28.8°F-1.8°C 23.1°F-4.9°C 79% Calm Calm 1.0 mph1.6 kmh 30.34 in1027.4 mb 0.00 in0.0 mm 0.00 in0.0 mm 0.00 in0.0 mm
01:22 AM 28.8°F-1.8°C 23.1°F-4.9°C 79% 1.0 mph NNW1.6 kmh NNW 1.0 mph1.6 kmh 30.34 in1027.4 mb 0.00 in0.0 mm 0.00 in0.0 mm 0.00 in0.0 mm
01:21 AM 28.9°F-1.7°C 23.2°F-4.9°C 79% 2.0 mph NNW3.2 kmh NNW 2.0 mph3.2 kmh 30.34 in1027.4 mb 0.00 in0.0 mm 0.00 in0.0 mm 0.00 in0.0 mm
01:20 AM 28.9°F-1.7°C 23.2°F-4.9°C 79% 2.0 mph NNW3.2 kmh NNW 3.0 mph4.8 kmh 30.34 in1027.4 mb 0.00 in0.0 mm 0.00 in0.0 mm 0.00 in0.0 mm
01:19 AM 28.8°F-1.8°C 23.4°F-4.8°C 80% 2.0 mph NNW3.2 kmh NNW 3.0 mph4.8 kmh 30.34 in1027.4 mb 0.00 in0.0 mm 0.00 in0.0 mm 0.00 in0.0 mm
01:18 AM 28.9°F-1.7°C 23.5°F-4.7°C 80% 2.0 mph NNW3.2 kmh NNW 3.0 mph4.8 kmh 30.34 in1027.4 mb 0.00 in0.0 mm 0.00 in0.0 mm 0.00 in0.0 mm
01:17 AM 28.8°F-1.8°C 23.1°F-4.9°C 79% 3.0 mph NNW4.8 kmh NNW 4.0 mph6.4 kmh 30.34 in1027.4 mb 0.00 in0.0 mm 0.00 in0.0 mm 0.00 in0.0 mm
01:16 AM 28.8°F-1.8°C 23.1°F-4.9°C 79% 2.0 mph NNW3.2 kmh NNW 3.0 mph4.8 kmh 30.34 in1027.4 mb 0.00 in0.0 mm 0.00 in0.0 mm 0.00 in0.0 mm
01:15 AM 28.9°F-1.7°C 23.2°F-4.9°C 79% 3.0 mph NNW4.8 kmh NNW 4.0 mph6.4 kmh 30.34 in1027.4 mb 0.00 in0.0 mm 0.00 in0.0 mm 0.00 in0.0 mm
01:14 AM 28.9°F-1.7°C 23.2°F-4.9°C 79% 4.0 mph 6.4 kmh 5.0 mph8.0 kmh 30.34 in1027.4 mb 0.00 in0.0 mm 0.00 in0.0 mm 0.00 in0.0 mm
01:13 AM 29.0°F-1.7°C 23.0°F-5.0°C 78% 3.0 mph 4.8 kmh 4.0 mph6.4 kmh 30.34 in1027.4 mb 0.00 in0.0 mm 0.00 in0.0 mm 0.00 in0.0 mm
01:12 AM 29.1°F-1.6°C 23.1°F-4.9°C 78% 4.0 mph 6.4 kmh 4.0 mph6.4 kmh 30.34 in1027.4 mb 0.00 in0.0 mm 0.00 in0.0 mm 0.00 in0.0 mm
01:11 AM 29.2°F-1.6°C 23.2°F-4.9°C 78% 3.0 mph W4.8 kmh W 3.0 mph4.8 kmh 30.34 in1027.4 mb 0.00 in0.0 mm 0.00 in0.0 mm 0.00 in0.0 mm
01:10 AM 29.3°F-1.5°C 23.3°F-4.8°C 78% 1.0 mph W1.6 kmh W 3.0 mph4.8 kmh 30.34 in1027.4 mb 0.00 in0.0 mm 0.00 in0.0 mm 0.00 in0.0 mm
01:09 AM 29.4°F-1.4°C 23.4°F-4.8°C 78% Calm Calm -- 30.34 in1027.4 mb 0.00 in0.0 mm 0.00 in0.0 mm 0.00 in0.0 mm
01:08 AM 29.4°F-1.4°C 23.4°F-4.8°C 78% Calm Calm 1.0 mph1.6 kmh 30.34 in1027.4 mb 0.00 in0.0 mm 0.00 in0.0 mm 0.00 in0.0 mm
01:07 AM 29.4°F-1.4°C 23.4°F-4.8°C 78% 1.0 mph W1.6 kmh W 1.0 mph1.6 kmh 30.34 in1027.4 mb 0.00 in0.0 mm 0.00 in0.0 mm 0.00 in0.0 mm
01:06 AM 29.5°F-1.4°C 23.5°F-4.7°C 78% 1.0 mph W1.6 kmh W 1.0 mph1.6 kmh 30.34 in1027.4 mb 0.00 in0.0 mm 0.00 in0.0 mm 0.00 in0.0 mm
01:05 AM 29.5°F-1.4°C 23.5°F-4.7°C 78% Calm Calm 1.0 mph1.6 kmh 30.34 in1027.4 mb 0.00 in0.0 mm 0.00 in0.0 mm 0.00 in0.0 mm
01:04 AM 29.6°F-1.3°C 23.6°F-4.7°C 78% 1.0 mph W1.6 kmh W 2.0 mph3.2 kmh 30.34 in1027.4 mb 0.00 in0.0 mm 0.00 in0.0 mm 0.00 in0.0 mm
01:03 AM 29.6°F-1.3°C 23.6°F-4.7°C 78% 2.0 mph W3.2 kmh W 2.0 mph3.2 kmh 30.34 in1027.4 mb 0.00 in0.0 mm 0.00 in0.0 mm 0.00 in0.0 mm
01:02 AM 29.7°F-1.3°C 23.7°F-4.6°C 78% 1.0 mph W1.6 kmh W 2.0 mph3.2 kmh 30.34 in1027.4 mb 0.00 in0.0 mm 0.00 in0.0 mm 0.00 in0.0 mm
01:01 AM 29.8°F-1.2°C 23.5°F-4.7°C 77% Calm Calm 1.0 mph1.6 kmh 30.34 in1027.4 mb 0.00 in0.0 mm 0.00 in0.0 mm 0.00 in0.0 mm
01:00 AM 29.8°F-1.2°C 23.5°F-4.7°C 77% 1.0 mph W1.6 kmh W 1.0 mph1.6 kmh 30.34 in1027.4 mb 0.00 in0.0 mm 0.00 in0.0 mm 0.00 in0.0 mm
12:59 AM 29.9°F-1.2°C 23.6°F-4.7°C 77% Calm Calm -- 30.34 in1027.4 mb 0.00 in0.0 mm 0.00 in0.0 mm 0.00 in0.0 mm
12:58 AM 30.0°F-1.1°C 23.7°F-4.6°C 77% Calm Calm 1.0 mph1.6 kmh 30.34 in1027.4 mb 0.00 in0.0 mm 0.00 in0.0 mm 0.00 in0.0 mm
12:57 AM 30.0°F-1.1°C 23.7°F-4.6°C 77% 1.0 mph W1.6 kmh W 1.0 mph1.6 kmh 30.34 in1027.4 mb 0.00 in0.0 mm 0.00 in0.0 mm 0.00 in0.0 mm
12:56 AM 30.1°F-1.1°C 23.8°F-4.6°C 77% 1.0 mph W1.6 kmh W 1.0 mph1.6 kmh 30.33 in1027.1 mb 0.00 in0.0 mm 0.00 in0.0 mm 0.00 in0.0 mm
12:55 AM 30.2°F-1.0°C 23.6°F-4.7°C 76% 1.0 mph W1.6 kmh W 2.0 mph3.2 kmh 30.33 in1027.1 mb 0.00 in0.0 mm 0.00 in0.0 mm 0.00 in0.0 mm
12:54 AM 30.3°F-0.9°C 23.7°F-4.6°C 76% 1.0 mph W1.6 kmh W 2.0 mph3.2 kmh 30.34 in1027.4 mb 0.00 in0.0 mm 0.00 in0.0 mm 0.00 in0.0 mm
12:53 AM 30.5°F-0.8°C 23.9°F-4.5°C 76% 1.0 mph W1.6 kmh W 2.0 mph3.2 kmh 30.34 in1027.4 mb 0.00 in0.0 mm 0.00 in0.0 mm 0.00 in0.0 mm
12:52 AM 30.6°F-0.8°C 23.6°F-4.7°C 75% 1.0 mph W1.6 kmh W 2.0 mph3.2 kmh 30.33 in1027.1 mb 0.00 in0.0 mm 0.00 in0.0 mm 0.00 in0.0 mm
12:51 AM 30.7°F-0.7°C 23.7°F-4.6°C 75% 2.0 mph W3.2 kmh W 2.0 mph3.2 kmh 30.34 in1027.4 mb 0.00 in0.0 mm 0.00 in0.0 mm 0.00 in0.0 mm
12:50 AM 30.9°F-0.6°C 23.9°F-4.5°C 75% 1.0 mph W1.6 kmh W 2.0 mph3.2 kmh 30.34 in1027.4 mb 0.00 in0.0 mm 0.00 in0.0 mm 0.00 in0.0 mm
12:49 AM 31.0°F-0.6°C 24.0°F-4.4°C 75% 1.0 mph W1.6 kmh W 2.0 mph3.2 kmh 30.34 in1027.4 mb 0.00 in0.0 mm 0.00 in0.0 mm 0.00 in0.0 mm
12:48 AM 31.1°F-0.5°C 24.1°F-4.4°C 75% Calm Calm 2.0 mph3.2 kmh 30.34 in1027.4 mb 0.00 in0.0 mm 0.00 in0.0 mm 0.00 in0.0 mm
12:47 AM 31.2°F-0.4°C 24.2°F-4.3°C 75% 1.0 mph W1.6 kmh W 2.0 mph3.2 kmh 30.34 in1027.4 mb 0.00 in0.0 mm 0.00 in0.0 mm 0.00 in0.0 mm
12:46 AM 31.3°F-0.4°C 24.3°F-4.3°C 75% Calm Calm 1.0 mph1.6 kmh 30.34 in1027.4 mb 0.00 in0.0 mm 0.00 in0.0 mm 0.00 in0.0 mm
12:45 AM 31.3°F-0.4°C 24.3°F-4.3°C 75% Calm Calm -- 30.34 in1027.4 mb 0.00 in0.0 mm 0.00 in0.0 mm 0.00 in0.0 mm
12:44 AM 31.5°F-0.3°C 24.2°F-4.3°C 74% Calm Calm -- 30.34 in1027.4 mb 0.00 in0.0 mm 0.00 in0.0 mm 0.00 in0.0 mm
12:43 AM 31.5°F-0.3°C 24.2°F-4.3°C 74% Calm Calm -- 30.34 in1027.4 mb 0.00 in0.0 mm 0.00 in0.0 mm 0.00 in0.0 mm
12:42 AM 31.6°F-0.2°C 24.3°F-4.3°C 74% Calm Calm 1.0 mph1.6 kmh 30.33 in1027.1 mb 0.00 in0.0 mm 0.00 in0.0 mm 0.00 in0.0 mm
12:41 AM 31.7°F-0.2°C 24.4°F-4.2°C 74% 1.0 mph W1.6 kmh W 2.0 mph3.2 kmh 30.34 in1027.4 mb 0.00 in0.0 mm 0.00 in0.0 mm 0.00 in0.0 mm
12:40 AM 31.9°F-0.1°C 24.6°F-4.1°C 74% Calm Calm 1.0 mph1.6 kmh 30.34 in1027.4 mb 0.00 in0.0 mm 0.00 in0.0 mm 0.00 in0.0 mm
12:39 AM 31.9°F-0.1°C 24.6°F-4.1°C 74% Calm Calm 1.0 mph1.6 kmh 30.34 in1027.4 mb 0.00 in0.0 mm 0.00 in0.0 mm 0.00 in0.0 mm
12:38 AM 32.1°F0.1°C 24.8°F-4.0°C 74% Calm Calm 1.0 mph1.6 kmh 30.33 in1027.1 mb 0.00 in0.0 mm 0.00 in0.0 mm 0.00 in0.0 mm
12:37 AM 32.2°F0.1°C 24.5°F-4.2°C 73% Calm Calm 1.0 mph1.6 kmh 30.33 in1027.1 mb 0.00 in0.0 mm 0.00 in0.0 mm 0.00 in0.0 mm
12:36 AM 32.3°F0.2°C 24.6°F-4.1°C 73% Calm Calm 1.0 mph1.6 kmh 30.33 in1027.1 mb 0.00 in0.0 mm 0.00 in0.0 mm 0.00 in0.0 mm
12:35 AM 32.4°F0.2°C 24.7°F-4.1°C 73% Calm Calm 1.0 mph1.6 kmh 30.34 in1027.4 mb 0.00 in0.0 mm 0.00 in0.0 mm 0.00 in0.0 mm
12:34 AM 32.5°F0.3°C 24.8°F-4.0°C 73% Calm Calm 1.0 mph1.6 kmh 30.33 in1027.1 mb 0.00 in0.0 mm 0.00 in0.0 mm 0.00 in0.0 mm
12:33 AM 32.6°F0.3°C 24.9°F-3.9°C 73% Calm Calm 1.0 mph1.6 kmh 30.34 in1027.4 mb 0.00 in0.0 mm 0.00 in0.0 mm 0.00 in0.0 mm
12:32 AM 32.6°F0.3°C 24.9°F-3.9°C 73% 1.0 mph W1.6 kmh W 2.0 mph3.2 kmh 30.33 in1027.1 mb 0.00 in0.0 mm 0.00 in0.0 mm 0.00 in0.0 mm
12:31 AM 32.6°F0.3°C 24.9°F-3.9°C 73% 2.0 mph W3.2 kmh W 3.0 mph4.8 kmh 30.33 in1027.1 mb 0.00 in0.0 mm 0.00 in0.0 mm 0.00 in0.0 mm
12:30 AM 32.6°F0.3°C 24.9°F-3.9°C 73% 3.0 mph W4.8 kmh W 4.0 mph6.4 kmh 30.33 in1027.1 mb 0.00 in0.0 mm 0.00 in0.0 mm 0.00 in0.0 mm
12:29 AM 32.6°F0.3°C 25.2°F-3.8°C 74% 5.0 mph W8.0 kmh W 7.0 mph11.3 kmh 30.33 in1027.1 mb 0.00 in0.0 mm 0.00 in0.0 mm 0.00 in0.0 mm
12:28 AM 32.6°F0.3°C 25.2°F-3.8°C 74% 3.0 mph W4.8 kmh W 4.0 mph6.4 kmh 30.33 in1027.1 mb 0.00 in0.0 mm 0.00 in0.0 mm 0.00 in0.0 mm
12:27 AM 32.6°F0.3°C 25.2°F-3.8°C 74% 4.0 mph W6.4 kmh W 6.0 mph9.7 kmh 30.34 in1027.4 mb 0.00 in0.0 mm 0.00 in0.0 mm 0.00 in0.0 mm
12:26 AM 32.6°F0.3°C 25.2°F-3.8°C 74% 3.0 mph W4.8 kmh W 6.0 mph9.7 kmh 30.34 in1027.4 mb 0.00 in0.0 mm 0.00 in0.0 mm 0.00 in0.0 mm
12:25 AM 32.5°F0.3°C 25.2°F-3.8°C 74% 3.0 mph W4.8 kmh W 4.0 mph6.4 kmh 30.34 in1027.4 mb 0.00 in0.0 mm 0.00 in0.0 mm 0.00 in0.0 mm
12:24 AM 32.5°F0.3°C 25.2°F-3.8°C 74% 3.0 mph W4.8 kmh W 4.0 mph6.4 kmh 30.33 in1027.1 mb 0.00 in0.0 mm 0.00 in0.0 mm 0.00 in0.0 mm
12:23 AM 32.4°F0.2°C 25.1°F-3.8°C 74% 3.0 mph W4.8 kmh W 4.0 mph6.4 kmh 30.34 in1027.4 mb 0.00 in0.0 mm 0.00 in0.0 mm 0.00 in0.0 mm
12:22 AM 32.4°F0.2°C 25.1°F-3.8°C 74% 3.0 mph WNW4.8 kmh WNW 4.0 mph6.4 kmh 30.34 in1027.4 mb 0.00 in0.0 mm 0.00 in0.0 mm 0.00 in0.0 mm
12:21 AM 32.4°F0.2°C 25.1°F-3.8°C 74% 3.0 mph W4.8 kmh W 4.0 mph6.4 kmh 30.34 in1027.4 mb 0.00 in0.0 mm 0.00 in0.0 mm 0.00 in0.0 mm
12:20 AM 32.4°F0.2°C 25.1°F-3.8°C 74% 3.0 mph W4.8 kmh W 6.0 mph9.7 kmh 30.34 in1027.4 mb 0.00 in0.0 mm 0.00 in0.0 mm 0.00 in0.0 mm
12:19 AM 32.3°F0.2°C 25.0°F-3.9°C 74% 3.0 mph W4.8 kmh W 4.0 mph6.4 kmh 30.34 in1027.4 mb 0.00 in0.0 mm 0.00 in0.0 mm 0.00 in0.0 mm
12:18 AM 32.2°F0.1°C 24.5°F-4.2°C 73% 4.0 mph W6.4 kmh W 4.0 mph6.4 kmh 30.34 in1027.4 mb 0.00 in0.0 mm 0.00 in0.0 mm 0.00 in0.0 mm
12:17 AM 32.2°F0.1°C 24.5°F-4.2°C 73% 4.0 mph W6.4 kmh W 6.0 mph9.7 kmh 30.34 in1027.4 mb 0.00 in0.0 mm 0.00 in0.0 mm 0.00 in0.0 mm
12:16 AM 32.2°F0.1°C 24.5°F-4.2°C 73% 4.0 mph W6.4 kmh W 4.0 mph6.4 kmh 30.34 in1027.4 mb 0.00 in0.0 mm 0.00 in0.0 mm 0.00 in0.0 mm
12:15 AM 32.3°F0.2°C 24.6°F-4.1°C 73% 4.0 mph WNW6.4 kmh WNW 6.0 mph9.7 kmh 30.33 in1027.1 mb 0.00 in0.0 mm 0.00 in0.0 mm 0.00 in0.0 mm
12:14 AM 32.3°F0.2°C 24.6°F-4.1°C 73% 3.0 mph WNW4.8 kmh WNW 5.0 mph8.0 kmh 30.33 in1027.1 mb 0.00 in0.0 mm 0.00 in0.0 mm 0.00 in0.0 mm
12:13 AM 32.3°F0.2°C 24.6°F-4.1°C 73% 5.0 mph WNW8.0 kmh WNW 7.0 mph11.3 kmh 30.33 in1027.1 mb 0.00 in0.0 mm 0.00 in0.0 mm 0.00 in0.0 mm
12:12 AM 32.4°F0.2°C 24.7°F-4.1°C 73% 5.0 mph WNW8.0 kmh WNW 7.0 mph11.3 kmh 30.34 in1027.4 mb 0.00 in0.0 mm 0.00 in0.0 mm 0.00 in0.0 mm
12:11 AM 32.4°F0.2°C 24.7°F-4.1°C 73% 5.0 mph WNW8.0 kmh WNW 6.0 mph9.7 kmh 30.33 in1027.1 mb 0.00 in0.0 mm 0.00 in0.0 mm 0.00 in0.0 mm
12:10 AM 32.5°F0.3°C 24.8°F-4.0°C 73% 5.0 mph WNW8.0 kmh WNW 7.0 mph11.3 kmh 30.34 in1027.4 mb 0.00 in0.0 mm 0.00 in0.0 mm 0.00 in0.0 mm
12:09 AM 32.6°F0.3°C 24.9°F-3.9°C 73% 4.0 mph WNW6.4 kmh WNW 8.0 mph12.9 kmh 30.33 in1027.1 mb 0.00 in0.0 mm 0.00 in0.0 mm 0.00 in0.0 mm
12:08 AM 32.6°F0.3°C 25.2°F-3.8°C 74% 4.0 mph WNW6.4 kmh WNW 6.0 mph9.7 kmh 30.33 in1027.1 mb 0.00 in0.0 mm 0.00 in0.0 mm 0.00 in0.0 mm
12:07 AM 32.7°F0.4°C 25.3°F-3.7°C 74% 4.0 mph WNW6.4 kmh WNW 7.0 mph11.3 kmh 30.33 in1027.1 mb 0.00 in0.0 mm 0.00 in0.0 mm 0.00 in0.0 mm
12:06 AM 32.6°F0.3°C 25.2°F-3.8°C 74% 7.0 mph WNW11.3 kmh WNW 9.0 mph14.5 kmh 30.33 in1027.1 mb 0.00 in0.0 mm 0.00 in0.0 mm 0.00 in0.0 mm
12:05 AM 32.6°F0.3°C 24.9°F-3.9°C 73% 6.0 mph WNW9.7 kmh WNW 8.0 mph12.9 kmh 30.33 in1027.1 mb 0.00 in0.0 mm 0.00 in0.0 mm 0.00 in0.0 mm
12:04 AM 32.5°F0.3°C 24.8°F-4.0°C 73% 6.0 mph W9.7 kmh W 8.0 mph12.9 kmh 30.33 in1027.1 mb 0.00 in0.0 mm 0.00 in0.0 mm 0.00 in0.0 mm
12:03 AM 32.5°F0.3°C 24.8°F-4.0°C 73% 6.0 mph W9.7 kmh W 8.0 mph12.9 kmh 30.33 in1027.1 mb 0.00 in0.0 mm 0.00 in0.0 mm 0.00 in0.0 mm
12:02 AM 32.4°F0.2°C 24.7°F-4.1°C 73% 5.0 mph W8.0 kmh W 7.0 mph11.3 kmh 30.33 in1027.1 mb 0.00 in0.0 mm 0.00 in0.0 mm 0.00 in0.0 mm
12:01 AM 32.3°F0.2°C 25.0°F-3.9°C 74% 5.0 mph W8.0 kmh W 7.0 mph11.3 kmh 30.33 in1027.1 mb 0.00 in0.0 mm 0.00 in0.0 mm 0.00 in0.0 mm
12:00 AM 32.1°F0.1°C 24.8°F-4.0°C 74% 6.0 mph W9.7 kmh W 8.0 mph12.9 kmh 30.33 in1027.1 mb 0.00 in0.0 mm 0.00 in0.0 mm 0.00 in0.0 mm